CheckWX is a tool to help pilots better visualize weather data.  It is not intended as a substitute for an official pre-flight weather briefing.

18:36:15 UTC

6R3 METAR
Cleveland Municipal Airport
Cleveland, Texas, USA
Current

21 mins ago

K6R3 221815Z AUTO 00000KT 3/4SM BR OVC003 14/14 A2997 RMK AO2 T01430143
Observed
Feb-22 @ 18:15 UTC
Visibility
3/4 SM
Flight Rules
LIFR
Conditions
Mist
Cloud Levels
  • Overcast at 300' AGL
Temperature
14°C / 57°F
Dewpoint
14°C / 57°F
Humidity
100%
Altimeter
29.97" Hg
Pressure
1014.92 hPa
Previous

41 mins ago

K6R3 221755Z AUTO 00000KT 1/4SM FG OVC003 14/14 A2998 RMK AO2 T01370137 10137 20090
Observed
Feb-22 @ 17:55 UTC
Visibility
1/4 SM
Flight Rules
LIFR
Conditions
Fog
Cloud Levels
  • Overcast at 300' AGL
Temperature
14°C / 57°F
Dewpoint
14°C / 57°F
Humidity
100%
Altimeter
29.98" Hg
Pressure
1015.22 hPa
Previous

1 hour ago

K6R3 221735Z AUTO 00000KT 1/2SM FG OVC003 13/13 A2999 RMK AO2 T01330133
Observed
Feb-22 @ 17:35 UTC
Visibility
1/2 SM
Flight Rules
LIFR
Conditions
Fog
Cloud Levels
  • Overcast at 300' AGL
Temperature
13°C / 55°F
Dewpoint
13°C / 55°F
Humidity
100%
Altimeter
29.99" Hg
Pressure
1015.62 hPa